• Join FlightAware (Why Join?)
  • Login
  • US Flag 
07:41AM EDT


 

Airport Tracker/Info


-or-


 

Live Flight TrackerFlight Track Log ✈ N26141 ✈ 01-May-2013 ✈ KORD - KLEX

Flight Track Log - Related Links

Times and Time Zones

All times are in EDT time to prevent confusion due to time zone crossing. See the N26141 flight status page for this flight to view local times or setup timezone preferences in your user account.

Time Position Orientation Groundspeed Altitude Reporting Facility
EDT Latitude Longitude Course Direction KTS MPH feet Rate Location/Type
06:05PM 41.9167 -87.9000 173° South 186 214 3,300  Level Chicago TRACON
06:06PM 41.8667 -87.8667 154° Southeast 239 275 5,000 1,200 Climbing Chicago TRACON
06:07PM 41.7365 -87.6877 157° South  Level Estimated
06:07PM 41.8000 -87.8333 160° South 257 296 5,800  Level Chicago TRACON
06:08PM 41.6547 -87.6151 156° South  Level Estimated
06:08PM 41.6831 -87.7642 156° South 269 310 10,500  Level Chicago Center
06:09PM 41.5572 -87.5999 173° South  Level FlightAware Approximate
06:09PM 41.6147 -87.7125 151° Southeast 280 322 12,900  Level Chicago Center
06:10PM 41.4618 -87.5852 173° South  Level FlightAware Approximate
06:11PM 41.5425 -87.6597 151° Southeast 292 336 15,300  Level Chicago Center
06:12PM 41.4675 -87.6042 151° Southeast 303 349 17,300 1,740 Climbing Chicago Center
06:13PM 41.3633 -87.5625 163° South 333 383 19,000 1,320 Climbing Chicago Center
06:14PM 41.2631 -87.5442 172° South 358 412 20,100 1,020 Climbing Chicago Center
06:15PM 41.1569 -87.5225 171° South 380 437 21,200 1,020 Climbing Chicago Center
06:16PM 41.0456 -87.4917 168° South 403 464 22,300 840 Climbing Chicago Center
06:17PM 40.9311 -87.4589 168° South 417 480 23,000 300 Climbing Chicago Center
06:18PM 40.8119 -87.4269 169° South 436 502 23,000  Level Chicago Center
06:19PM 40.6792 -87.3378 153° Southeast 446 513 23,000  Level Chicago Center
06:20PM 40.5717 -87.2614 152° Southeast 442 509 23,000  Level Chicago Center
06:21PM 40.4625 -87.1831 151° Southeast 448 516 23,000  Level Chicago Center
06:22PM 40.3553 -87.1078 152° Southeast 444 511 23,000  Level Chicago Center
06:23PM 40.2281 -87.0183 152° Southeast 442 509 23,000  Level Chicago Center
06:24PM 40.1178 -86.9414 152° Southeast 443 510 23,000  Level Indianapolis Center
06:25PM 40.0097 -86.8653 152° Southeast 441 507 23,000  Level Indianapolis Center
06:26PM 39.9019 -86.7903 152° Southeast 439 505 23,000  Level Indianapolis Center
06:27PM 39.7961 -86.7153 151° Southeast 434 499 23,000  Level Indianapolis Center
06:28PM 39.7050 -86.6131 139° Southeast 437 503 23,000  Level Indianapolis Center
06:29PM 39.6025 -86.4867 136° Southeast 440 506 23,000  Level Indianapolis Center
06:30PM 39.5150 -86.3789 136° Southeast 438 504 23,000  Level Indianapolis Center
06:31PM 39.4275 -86.2717 137° Southeast 435 501 23,000  Level Indianapolis Center
06:32PM 39.3394 -86.1636 136° Southeast 436 502 23,000  Level Indianapolis Center
06:33PM 39.2511 -86.0547 136° Southeast 438 504 23,000  Level Indianapolis Center
06:34PM 39.1508 -85.9311 136° Southeast 426 490 23,000  Level Indianapolis Center
06:35PM 39.0625 -85.8269 138° Southeast 428 493 23,000  Level Indianapolis Center
06:36PM 38.9753 -85.7203 136° Southeast 430 495 23,000  Level Indianapolis Center
06:37PM 38.8875 -85.6139 137° Southeast 432 497 23,000  Level Indianapolis Center
06:38PM 38.7983 -85.5078 137° Southeast 433 498 23,000 -300 Level Indianapolis Center
06:39PM 38.7100 -85.4022 137° Southeast 433 498 22,400 -960 Descending Indianapolis Center
06:40PM 38.6169 -85.2903 137° Southeast 424 488 21,100 -1,740 Descending Indianapolis Center
06:42PM 38.5242 -85.1797 137° Southeast 413 475 18,900 -2,400 Descending Indianapolis Center
06:43PM 38.4450 -85.0872 138° Southeast 385 443 16,200 -3,000 Descending Indianapolis Center
06:44PM 38.3756 -85.0014 136° Southeast 354 407 12,800 -2,760 Descending Indianapolis Center
06:45PM 38.3097 -84.9261 138° Southeast 325 374 10,600 -1,800 Descending Indianapolis Center
06:46PM 38.2542 -84.8622 138° Southeast 278 320 9,200 -1,620 Descending Indianapolis Center
06:47PM 38.1944 -84.7911 137° Southeast 256 295 7,300 -1,800 Descending Indianapolis Center
06:48PM 38.1333 -84.7625 160° South 247 284 5,600 -1,500 Descending Indianapolis Center
06:49PM 38.0631 -84.7611 179° South 252 290 4,300 -1,260 Descending Indianapolis Center